sensor_id;sensor_type;location;lat;lon;timestamp;P1;durP1;ratioP1;P2;durP2;ratioP2
59486;SDS011;45298;54.918;73.504;2023-08-20T00:00:52;24.65;;;12.25;;
59486;SDS011;45298;54.918;73.504;2023-08-20T00:03:21;18.33;;;7.57;;
59486;SDS011;45298;54.918;73.504;2023-08-20T00:05:51;12.00;;;6.82;;
59486;SDS011;45298;54.918;73.504;2023-08-20T00:08:19;14.18;;;7.32;;
59486;SDS011;45298;54.918;73.504;2023-08-20T00:10:48;20.45;;;9.32;;
59486;SDS011;45298;54.918;73.504;2023-08-20T00:13:17;19.25;;;8.95;;
59486;SDS011;45298;54.918;73.504;2023-08-20T00:15:46;19.98;;;7.80;;
59486;SDS011;45298;54.918;73.504;2023-08-20T00:18:15;16.98;;;7.68;;
59486;SDS011;45298;54.918;73.504;2023-08-20T00:20:44;15.68;;;8.73;;
59486;SDS011;45298;54.918;73.504;2023-08-20T00:23:13;19.42;;;8.68;;
59486;SDS011;45298;54.918;73.504;2023-08-20T00:25:43;17.02;;;6.68;;
59486;SDS011;45298;54.918;73.504;2023-08-20T00:28:12;15.40;;;7.25;;
59486;SDS011;45298;54.918;73.504;2023-08-20T00:30:41;15.70;;;7.20;;
59486;SDS011;45298;54.918;73.504;2023-08-20T00:33:10;14.55;;;7.53;;
59486;SDS011;45298;54.918;73.504;2023-08-20T00:35:41;15.82;;;8.15;;
59486;SDS011;45298;54.918;73.504;2023-08-20T00:38:10;20.10;;;8.75;;
59486;SDS011;45298;54.918;73.504;2023-08-20T00:40:38;15.90;;;7.53;;
59486;SDS011;45298;54.918;73.504;2023-08-20T00:43:07;23.63;;;9.57;;
59486;SDS011;45298;54.918;73.504;2023-08-20T00:45:36;20.27;;;10.10;;
59486;SDS011;45298;54.918;73.504;2023-08-20T00:48:05;21.73;;;9.35;;
59486;SDS011;45298;54.918;73.504;2023-08-20T00:50:35;13.38;;;7.00;;
59486;SDS011;45298;54.918;73.504;2023-08-20T00:53:04;12.50;;;6.90;;
59486;SDS011;45298;54.918;73.504;2023-08-20T00:55:33;10.15;;;4.20;;
59486;SDS011;45298;54.918;73.504;2023-08-20T00:58:02;6.75;;;4.63;;
59486;SDS011;45298;54.918;73.504;2023-08-20T01:00:32;9.93;;;4.88;;
59486;SDS011;45298;54.918;73.504;2023-08-20T01:03:02;7.90;;;4.63;;
59486;SDS011;45298;54.918;73.504;2023-08-20T01:05:32;5.22;;;3.25;;
59486;SDS011;45298;54.918;73.504;2023-08-20T01:11:12;4.85;;;2.88;;
59486;SDS011;45298;54.918;73.504;2023-08-20T01:13:55;4.80;;;3.40;;
59486;SDS011;45298;54.918;73.504;2023-08-20T01:16:24;5.57;;;3.50;;
59486;SDS011;45298;54.918;73.504;2023-08-20T01:18:53;10.25;;;4.00;;
59486;SDS011;45298;54.918;73.504;2023-08-20T01:21:36;6.63;;;4.40;;
59486;SDS011;45298;54.918;73.504;2023-08-20T01:27:19;6.45;;;3.50;;
59486;SDS011;45298;54.918;73.504;2023-08-20T01:30:13;5.80;;;3.70;;
59486;SDS011;45298;54.918;73.504;2023-08-20T01:32:43;4.60;;;2.90;;
59486;SDS011;45298;54.918;73.504;2023-08-20T01:35:14;5.93;;;3.17;;
59486;SDS011;45298;54.918;73.504;2023-08-20T01:37:45;5.10;;;3.22;;
59486;SDS011;45298;54.918;73.504;2023-08-20T01:40:14;6.90;;;3.10;;
59486;SDS011;45298;54.918;73.504;2023-08-20T01:42:43;9.95;;;3.38;;
59486;SDS011;45298;54.918;73.504;2023-08-20T01:45:13;6.28;;;3.92;;
59486;SDS011;45298;54.918;73.504;2023-08-20T01:47:45;6.82;;;3.75;;
59486;SDS011;45298;54.918;73.504;2023-08-20T01:50:14;17.35;;;6.47;;
59486;SDS011;45298;54.918;73.504;2023-08-20T01:52:43;9.60;;;4.80;;
59486;SDS011;45298;54.918;73.504;2023-08-20T01:55:12;6.45;;;3.67;;
59486;SDS011;45298;54.918;73.504;2023-08-20T01:57:41;10.05;;;3.92;;
59486;SDS011;45298;54.918;73.504;2023-08-20T02:00:11;19.73;;;6.20;;
59486;SDS011;45298;54.918;73.504;2023-08-20T02:02:41;16.55;;;5.45;;
59486;SDS011;45298;54.918;73.504;2023-08-20T02:05:10;8.38;;;4.43;;
59486;SDS011;45298;54.918;73.504;2023-08-20T02:07:38;8.63;;;3.80;;
59486;SDS011;45298;54.918;73.504;2023-08-20T02:10:07;9.75;;;4.10;;
59486;SDS011;45298;54.918;73.504;2023-08-20T02:12:37;11.82;;;4.60;;
59486;SDS011;45298;54.918;73.504;2023-08-20T02:15:06;14.52;;;5.22;;
59486;SDS011;45298;54.918;73.504;2023-08-20T02:17:36;14.35;;;5.50;;
59486;SDS011;45298;54.918;73.504;2023-08-20T02:20:06;10.70;;;4.43;;
59486;SDS011;45298;54.918;73.504;2023-08-20T02:22:38;8.55;;;3.60;;
59486;SDS011;45298;54.918;73.504;2023-08-20T02:25:08;6.75;;;3.47;;
59486;SDS011;45298;54.918;73.504;2023-08-20T02:27:37;6.38;;;3.08;;
59486;SDS011;45298;54.918;73.504;2023-08-20T02:30:05;5.70;;;2.90;;
59486;SDS011;45298;54.918;73.504;2023-08-20T02:32:35;4.43;;;2.58;;
59486;SDS011;45298;54.918;73.504;2023-08-20T02:35:04;6.63;;;3.20;;
59486;SDS011;45298;54.918;73.504;2023-08-20T02:37:33;20.08;;;5.82;;
59486;SDS011;45298;54.918;73.504;2023-08-20T02:40:02;20.90;;;7.13;;
59486;SDS011;45298;54.918;73.504;2023-08-20T02:42:32;10.20;;;3.83;;
59486;SDS011;45298;54.918;73.504;2023-08-20T02:45:01;7.40;;;2.72;;
59486;SDS011;45298;54.918;73.504;2023-08-20T02:47:30;3.45;;;2.30;;
59486;SDS011;45298;54.918;73.504;2023-08-20T02:50:02;4.07;;;2.65;;
59486;SDS011;45298;54.918;73.504;2023-08-20T02:52:32;3.83;;;2.65;;
59486;SDS011;45298;54.918;73.504;2023-08-20T02:55:01;3.60;;;2.40;;
59486;SDS011;45298;54.918;73.504;2023-08-20T04:01:23;4.05;;;2.40;;
59486;SDS011;45298;54.918;73.504;2023-08-20T04:03:52;6.72;;;2.30;;
59486;SDS011;45298;54.918;73.504;2023-08-20T04:06:24;3.30;;;2.10;;
59486;SDS011;45298;54.918;73.504;2023-08-20T04:08:53;6.63;;;2.42;;
59486;SDS011;45298;54.918;73.504;2023-08-20T04:11:22;5.15;;;2.70;;
59486;SDS011;45298;54.918;73.504;2023-08-20T04:13:51;5.78;;;2.13;;
59486;SDS011;45298;54.918;73.504;2023-08-20T04:16:19;4.63;;;2.15;;
59486;SDS011;45298;54.918;73.504;2023-08-20T04:18:48;3.30;;;2.20;;
59486;SDS011;45298;54.918;73.504;2023-08-20T04:21:17;3.42;;;2.25;;
59486;SDS011;45298;54.918;73.504;2023-08-20T04:23:46;3.60;;;2.20;;
59486;SDS011;45298;54.918;73.504;2023-08-20T04:26:14;3.45;;;2.10;;
59486;SDS011;45298;54.918;73.504;2023-08-20T04:28:43;4.70;;;2.28;;
59486;SDS011;45298;54.918;73.504;2023-08-20T04:31:12;3.60;;;2.38;;
59486;SDS011;45298;54.918;73.504;2023-08-20T04:33:54;4.47;;;2.50;;
59486;SDS011;45298;54.918;73.504;2023-08-20T04:36:33;3.30;;;2.22;;
59486;SDS011;45298;54.918;73.504;2023-08-20T04:39:02;3.53;;;1.92;;
59486;SDS011;45298;54.918;73.504;2023-08-20T04:41:35;3.58;;;2.50;;
59486;SDS011;45298;54.918;73.504;2023-08-20T04:44:04;3.40;;;2.03;;
59486;SDS011;45298;54.918;73.504;2023-08-20T04:46:33;3.90;;;2.13;;
59486;SDS011;45298;54.918;73.504;2023-08-20T04:49:02;3.10;;;2.20;;
59486;SDS011;45298;54.918;73.504;2023-08-20T04:51:31;3.35;;;2.28;;
59486;SDS011;45298;54.918;73.504;2023-08-20T04:54:01;3.38;;;2.20;;
59486;SDS011;45298;54.918;73.504;2023-08-20T04:56:30;3.72;;;2.25;;
59486;SDS011;45298;54.918;73.504;2023-08-20T04:58:59;3.83;;;2.72;;
59486;SDS011;45298;54.918;73.504;2023-08-20T05:01:51;5.57;;;3.67;;
59486;SDS011;45298;54.918;73.504;2023-08-20T05:04:34;4.38;;;2.80;;
59486;SDS011;45298;54.918;73.504;2023-08-20T05:07:03;5.22;;;2.95;;
59486;SDS011;45298;54.918;73.504;2023-08-20T05:09:33;6.07;;;2.50;;
59486;SDS011;45298;54.918;73.504;2023-08-20T05:12:02;2.88;;;1.95;;
59486;SDS011;45298;54.918;73.504;2023-08-20T05:14:33;5.57;;;2.08;;
59486;SDS011;45298;54.918;73.504;2023-08-20T05:17:02;4.22;;;2.35;;
59486;SDS011;45298;54.918;73.504;2023-08-20T05:19:30;3.08;;;1.80;;
59486;SDS011;45298;54.918;73.504;2023-08-20T05:21:59;4.18;;;2.60;;
59486;SDS011;45298;54.918;73.504;2023-08-20T05:24:32;4.75;;;2.97;;
59486;SDS011;45298;54.918;73.504;2023-08-20T05:29:35;4.07;;;2.42;;
59486;SDS011;45298;54.918;73.504;2023-08-20T05:32:05;4.47;;;2.58;;
59486;SDS011;45298;54.918;73.504;2023-08-20T05:34:35;5.32;;;2.90;;
59486;SDS011;45298;54.918;73.504;2023-08-20T05:37:04;5.50;;;2.88;;
59486;SDS011;45298;54.918;73.504;2023-08-20T05:39:37;4.38;;;2.35;;
59486;SDS011;45298;54.918;73.504;2023-08-20T05:42:08;4.75;;;2.10;;
59486;SDS011;45298;54.918;73.504;2023-08-20T05:44:40;5.13;;;2.50;;
59486;SDS011;45298;54.918;73.504;2023-08-20T05:47:14;3.23;;;2.20;;
59486;SDS011;45298;54.918;73.504;2023-08-20T05:49:43;5.30;;;2.47;;
59486;SDS011;45298;54.918;73.504;2023-08-20T05:52:12;4.50;;;2.28;;
59486;SDS011;45298;54.918;73.504;2023-08-20T05:54:42;4.10;;;2.30;;
59486;SDS011;45298;54.918;73.504;2023-08-20T05:57:11;5.32;;;2.88;;
59486;SDS011;45298;54.918;73.504;2023-08-20T05:59:41;10.20;;;5.25;;
59486;SDS011;45298;54.918;73.504;2023-08-20T06:02:13;5.05;;;3.03;;
59486;SDS011;45298;54.918;73.504;2023-08-20T06:04:45;4.03;;;2.40;;
59486;SDS011;45298;54.918;73.504;2023-08-20T06:07:14;5.38;;;2.95;;
59486;SDS011;45298;54.918;73.504;2023-08-20T06:09:43;4.05;;;2.38;;
59486;SDS011;45298;54.918;73.504;2023-08-20T06:12:12;3.85;;;2.40;;
59486;SDS011;45298;54.918;73.504;2023-08-20T06:14:41;6.43;;;2.25;;
59486;SDS011;45298;54.918;73.504;2023-08-20T06:17:09;3.85;;;2.28;;
59486;SDS011;45298;54.918;73.504;2023-08-20T06:19:41;2.53;;;1.70;;
59486;SDS011;45298;54.918;73.504;2023-08-20T06:22:10;4.28;;;2.10;;
59486;SDS011;45298;54.918;73.504;2023-08-20T06:24:39;3.35;;;2.08;;
59486;SDS011;45298;54.918;73.504;2023-08-20T06:27:08;2.55;;;1.70;;
59486;SDS011;45298;54.918;73.504;2023-08-20T06:29:37;2.72;;;1.77;;
59486;SDS011;45298;54.918;73.504;2023-08-20T06:32:06;2.80;;;2.00;;
59486;SDS011;45298;54.918;73.504;2023-08-20T06:34:35;6.43;;;2.50;;
59486;SDS011;45298;54.918;73.504;2023-08-20T06:37:07;3.20;;;2.00;;
59486;SDS011;45298;54.918;73.504;2023-08-20T06:39:36;63.10;;;34.90;;
59486;SDS011;45298;54.918;73.504;2023-08-20T06:42:05;4.68;;;2.40;;
59486;SDS011;45298;54.918;73.504;2023-08-20T06:44:34;4.43;;;2.60;;
59486;SDS011;45298;54.918;73.504;2023-08-20T06:47:03;4.13;;;2.22;;
59486;SDS011;45298;54.918;73.504;2023-08-20T06:49:33;6.38;;;3.83;;
59486;SDS011;45298;54.918;73.504;2023-08-20T06:52:02;4.05;;;2.50;;
59486;SDS011;45298;54.918;73.504;2023-08-20T06:54:30;3.92;;;2.42;;
59486;SDS011;45298;54.918;73.504;2023-08-20T06:56:59;5.88;;;2.00;;
59486;SDS011;45298;54.918;73.504;2023-08-20T06:59:28;2.85;;;1.88;;
59486;SDS011;45298;54.918;73.504;2023-08-20T07:01:57;5.55;;;2.80;;
59486;SDS011;45298;54.918;73.504;2023-08-20T07:04:25;5.05;;;2.17;;
59486;SDS011;45298;54.918;73.504;2023-08-20T07:06:54;3.33;;;2.03;;
59486;SDS011;45298;54.918;73.504;2023-08-20T07:09:23;3.53;;;1.85;;
59486;SDS011;45298;54.918;73.504;2023-08-20T07:11:52;3.05;;;1.63;;
59486;SDS011;45298;54.918;73.504;2023-08-20T07:14:21;2.88;;;1.90;;
59486;SDS011;45298;54.918;73.504;2023-08-20T07:16:50;3.78;;;2.53;;
59486;SDS011;45298;54.918;73.504;2023-08-20T07:19:21;4.82;;;1.88;;
59486;SDS011;45298;54.918;73.504;2023-08-20T07:21:49;5.82;;;2.40;;
59486;SDS011;45298;54.918;73.504;2023-08-20T07:24:18;3.92;;;1.90;;
59486;SDS011;45298;54.918;73.504;2023-08-20T07:26:53;3.20;;;2.05;;
59486;SDS011;45298;54.918;73.504;2023-08-20T07:29:27;7.75;;;4.43;;
59486;SDS011;45298;54.918;73.504;2023-08-20T07:31:58;12.38;;;5.88;;
59486;SDS011;45298;54.918;73.504;2023-08-20T07:34:31;3.85;;;2.35;;
59486;SDS011;45298;54.918;73.504;2023-08-20T07:37:02;9.18;;;6.32;;
59486;SDS011;45298;54.918;73.504;2023-08-20T07:39:31;6.07;;;2.50;;
59486;SDS011;45298;54.918;73.504;2023-08-20T07:42:00;6.15;;;2.22;;
59486;SDS011;45298;54.918;73.504;2023-08-20T07:44:29;2.50;;;1.73;;
59486;SDS011;45298;54.918;73.504;2023-08-20T07:46:58;3.55;;;1.75;;
59486;SDS011;45298;54.918;73.504;2023-08-20T07:49:27;4.13;;;1.95;;
59486;SDS011;45298;54.918;73.504;2023-08-20T07:51:56;23.60;;;12.98;;
59486;SDS011;45298;54.918;73.504;2023-08-20T07:54:25;7.90;;;4.80;;
59486;SDS011;45298;54.918;73.504;2023-08-20T07:56:57;12.35;;;7.28;;
59486;SDS011;45298;54.918;73.504;2023-08-20T07:59:26;2.30;;;1.65;;
59486;SDS011;45298;54.918;73.504;2023-08-20T08:01:55;3.08;;;1.70;;
59486;SDS011;45298;54.918;73.504;2023-08-20T08:04:23;3.72;;;2.20;;
59486;SDS011;45298;54.918;73.504;2023-08-20T08:06:52;3.05;;;1.58;;
59486;SDS011;45298;54.918;73.504;2023-08-20T08:09:26;3.08;;;2.08;;
59486;SDS011;45298;54.918;73.504;2023-08-20T08:11:57;2.55;;;1.80;;
59486;SDS011;45298;54.918;73.504;2023-08-20T08:14:26;8.77;;;2.50;;
59486;SDS011;45298;54.918;73.504;2023-08-20T08:16:58;16.17;;;7.07;;
59486;SDS011;45298;54.918;73.504;2023-08-20T08:19:28;10.20;;;3.42;;
59486;SDS011;45298;54.918;73.504;2023-08-20T08:21:56;16.20;;;5.68;;
59486;SDS011;45298;54.918;73.504;2023-08-20T08:24:26;22.33;;;9.32;;
59486;SDS011;45298;54.918;73.504;2023-08-20T08:26:54;13.00;;;5.85;;
59486;SDS011;45298;54.918;73.504;2023-08-20T08:29:23;23.52;;;12.43;;
59486;SDS011;45298;54.918;73.504;2023-08-20T08:31:52;15.35;;;9.38;;
59486;SDS011;45298;54.918;73.504;2023-08-20T08:34:21;61.05;;;32.17;;
59486;SDS011;45298;54.918;73.504;2023-08-20T08:36:50;9.45;;;3.88;;
59486;SDS011;45298;54.918;73.504;2023-08-20T08:39:18;186.85;;;110.20;;
59486;SDS011;45298;54.918;73.504;2023-08-20T08:41:49;6.40;;;3.40;;
59486;SDS011;45298;54.918;73.504;2023-08-20T08:44:20;84.20;;;51.33;;
59486;SDS011;45298;54.918;73.504;2023-08-20T08:46:49;3.80;;;2.78;;
59486;SDS011;45298;54.918;73.504;2023-08-20T08:49:19;5.65;;;2.92;;
59486;SDS011;45298;54.918;73.504;2023-08-20T08:51:48;4.93;;;3.13;;
59486;SDS011;45298;54.918;73.504;2023-08-20T08:54:20;2.40;;;1.70;;
59486;SDS011;45298;54.918;73.504;2023-08-20T08:56:50;12.57;;;5.40;;
59486;SDS011;45298;54.918;73.504;2023-08-20T08:59:19;11.52;;;3.33;;
59486;SDS011;45298;54.918;73.504;2023-08-20T09:01:48;6.95;;;2.40;;
59486;SDS011;45298;54.918;73.504;2023-08-20T09:04:18;9.10;;;2.47;;
59486;SDS011;45298;54.918;73.504;2023-08-20T09:06:47;11.95;;;2.58;;
59486;SDS011;45298;54.918;73.504;2023-08-20T09:09:20;8.43;;;2.27;;
59486;SDS011;45298;54.918;73.504;2023-08-20T09:11:50;7.75;;;1.85;;
59486;SDS011;45298;54.918;73.504;2023-08-20T09:14:28;7.40;;;4.32;;
59486;SDS011;45298;54.918;73.504;2023-08-20T09:16:58;7.05;;;2.42;;
59486;SDS011;45298;54.918;73.504;2023-08-20T09:19:30;24.42;;;14.45;;
59486;SDS011;45298;54.918;73.504;2023-08-20T09:22:03;13.68;;;7.78;;
59486;SDS011;45298;54.918;73.504;2023-08-20T09:24:33;27.13;;;16.40;;
59486;SDS011;45298;54.918;73.504;2023-08-20T09:27:07;6.78;;;1.90;;
59486;SDS011;45298;54.918;73.504;2023-08-20T09:32:26;13.00;;;6.72;;
59486;SDS011;45298;54.918;73.504;2023-08-20T09:34:56;16.90;;;6.53;;
59486;SDS011;45298;54.918;73.504;2023-08-20T09:37:25;21.50;;;10.65;;
59486;SDS011;45298;54.918;73.504;2023-08-20T09:39:55;12.45;;;5.47;;
59486;SDS011;45298;54.918;73.504;2023-08-20T09:42:24;12.20;;;6.00;;
59486;SDS011;45298;54.918;73.504;2023-08-20T09:44:56;5.05;;;2.45;;
59486;SDS011;45298;54.918;73.504;2023-08-20T09:47:26;9.13;;;4.55;;
59486;SDS011;45298;54.918;73.504;2023-08-20T09:49:57;16.67;;;6.50;;
59486;SDS011;45298;54.918;73.504;2023-08-20T09:52:31;27.80;;;13.35;;
59486;SDS011;45298;54.918;73.504;2023-08-20T09:55:11;3.97;;;2.40;;
59486;SDS011;45298;54.918;73.504;2023-08-20T09:57:48;3.55;;;1.83;;
59486;SDS011;45298;54.918;73.504;2023-08-20T10:00:18;3.38;;;2.15;;
59486;SDS011;45298;54.918;73.504;2023-08-20T10:02:47;3.08;;;1.90;;
59486;SDS011;45298;54.918;73.504;2023-08-20T10:05:17;5.68;;;2.10;;
59486;SDS011;45298;54.918;73.504;2023-08-20T10:07:49;2.88;;;1.63;;
59486;SDS011;45298;54.918;73.504;2023-08-20T10:10:18;3.17;;;1.92;;
59486;SDS011;45298;54.918;73.504;2023-08-20T10:12:47;6.60;;;2.30;;
59486;SDS011;45298;54.918;73.504;2023-08-20T10:15:16;3.03;;;2.00;;
59486;SDS011;45298;54.918;73.504;2023-08-20T10:17:46;3.13;;;1.60;;
59486;SDS011;45298;54.918;73.504;2023-08-20T10:20:15;2.53;;;1.67;;
59486;SDS011;45298;54.918;73.504;2023-08-20T10:22:50;3.97;;;1.50;;
59486;SDS011;45298;54.918;73.504;2023-08-20T10:25:23;2.53;;;1.55;;
59486;SDS011;45298;54.918;73.504;2023-08-20T10:27:53;4.18;;;1.90;;
59486;SDS011;45298;54.918;73.504;2023-08-20T10:30:24;8.45;;;2.97;;
59486;SDS011;45298;54.918;73.504;2023-08-20T10:32:55;13.60;;;6.18;;
59486;SDS011;45298;54.918;73.504;2023-08-20T10:36:03;7.10;;;2.20;;
59486;SDS011;45298;54.918;73.504;2023-08-20T10:38:27;2.92;;;1.52;;
59486;SDS011;45298;54.918;73.504;2023-08-20T10:41:05;2.47;;;1.55;;
59486;SDS011;45298;54.918;73.504;2023-08-20T10:43:40;9.65;;;2.42;;
59486;SDS011;45298;54.918;73.504;2023-08-20T10:46:20;7.80;;;4.90;;
59486;SDS011;45298;54.918;73.504;2023-08-20T10:48:52;13.30;;;7.43;;
59486;SDS011;45298;54.918;73.504;2023-08-20T10:51:30;4.00;;;2.20;;
59486;SDS011;45298;54.918;73.504;2023-08-20T10:56:41;11.45;;;5.90;;
59486;SDS011;45298;54.918;73.504;2023-08-20T10:59:25;5.47;;;3.10;;
59486;SDS011;45298;54.918;73.504;2023-08-20T11:01:56;16.10;;;9.80;;
59486;SDS011;45298;54.918;73.504;2023-08-20T11:04:31;4.00;;;1.88;;
59486;SDS011;45298;54.918;73.504;2023-08-20T11:07:03;13.35;;;4.40;;
59486;SDS011;45298;54.918;73.504;2023-08-20T11:09:32;12.02;;;3.30;;
59486;SDS011;45298;54.918;73.504;2023-08-20T11:12:01;6.30;;;3.10;;
59486;SDS011;45298;54.918;73.504;2023-08-20T11:14:30;5.70;;;2.08;;
59486;SDS011;45298;54.918;73.504;2023-08-20T11:16:59;9.65;;;2.08;;
59486;SDS011;45298;54.918;73.504;2023-08-20T11:19:28;12.25;;;2.60;;
59486;SDS011;45298;54.918;73.504;2023-08-20T11:21:57;7.70;;;2.10;;
59486;SDS011;45298;54.918;73.504;2023-08-20T11:24:29;2.25;;;1.25;;
59486;SDS011;45298;54.918;73.504;2023-08-20T11:26:58;6.78;;;3.03;;
59486;SDS011;45298;54.918;73.504;2023-08-20T11:29:27;3.58;;;1.95;;
59486;SDS011;45298;54.918;73.504;2023-08-20T11:31:58;2.88;;;1.77;;
59486;SDS011;45298;54.918;73.504;2023-08-20T11:34:31;6.03;;;2.10;;
59486;SDS011;45298;54.918;73.504;2023-08-20T11:37:00;6.82;;;2.30;;
59486;SDS011;45298;54.918;73.504;2023-08-20T11:39:33;5.70;;;2.25;;
59486;SDS011;45298;54.918;73.504;2023-08-20T11:42:04;4.70;;;1.90;;
59486;SDS011;45298;54.918;73.504;2023-08-20T11:44:44;15.23;;;2.85;;
59486;SDS011;45298;54.918;73.504;2023-08-20T11:47:17;12.70;;;2.40;;
59486;SDS011;45298;54.918;73.504;2023-08-20T11:49:46;7.65;;;2.03;;
59486;SDS011;45298;54.918;73.504;2023-08-20T11:52:18;9.65;;;2.40;;
59486;SDS011;45298;54.918;73.504;2023-08-20T11:54:48;13.35;;;2.60;;
59486;SDS011;45298;54.918;73.504;2023-08-20T11:57:17;12.02;;;2.35;;
59486;SDS011;45298;54.918;73.504;2023-08-20T11:59:47;13.00;;;5.50;;
59486;SDS011;45298;54.918;73.504;2023-08-20T12:02:15;18.48;;;6.80;;
59486;SDS011;45298;54.918;73.504;2023-08-20T12:05:10;16.60;;;5.70;;
59486;SDS011;45298;54.918;73.504;2023-08-20T12:07:41;21.75;;;5.28;;
59486;SDS011;45298;54.918;73.504;2023-08-20T12:10:20;14.07;;;5.55;;
59486;SDS011;45298;54.918;73.504;2023-08-20T12:12:50;10.00;;;3.45;;
59486;SDS011;45298;54.918;73.504;2023-08-20T12:15:19;36.85;;;19.90;;
59486;SDS011;45298;54.918;73.504;2023-08-20T12:17:58;24.48;;;15.52;;
59486;SDS011;45298;54.918;73.504;2023-08-20T12:20:35;6.25;;;3.10;;
59486;SDS011;45298;54.918;73.504;2023-08-20T12:23:05;7.70;;;4.50;;
59486;SDS011;45298;54.918;73.504;2023-08-20T12:25:35;3.83;;;1.55;;
59486;SDS011;45298;54.918;73.504;2023-08-20T12:28:04;3.47;;;1.70;;
59486;SDS011;45298;54.918;73.504;2023-08-20T12:30:34;2.05;;;1.60;;
59486;SDS011;45298;54.918;73.504;2023-08-20T12:33:06;3.97;;;2.10;;
59486;SDS011;45298;54.918;73.504;2023-08-20T12:35:35;3.60;;;2.20;;
59486;SDS011;45298;54.918;73.504;2023-08-20T12:38:04;6.93;;;3.67;;
59486;SDS011;45298;54.918;73.504;2023-08-20T12:40:35;22.17;;;11.20;;
59486;SDS011;45298;54.918;73.504;2023-08-20T12:43:04;5.47;;;2.47;;
59486;SDS011;45298;54.918;73.504;2023-08-20T12:45:34;2.83;;;1.40;;
59486;SDS011;45298;54.918;73.504;2023-08-20T12:48:03;2.92;;;1.80;;
59486;SDS011;45298;54.918;73.504;2023-08-20T12:50:33;2.25;;;1.48;;
59486;SDS011;45298;54.918;73.504;2023-08-20T12:53:02;5.43;;;2.20;;
59486;SDS011;45298;54.918;73.504;2023-08-20T12:55:31;4.25;;;1.45;;
59486;SDS011;45298;54.918;73.504;2023-08-20T12:57:59;2.75;;;1.30;;
59486;SDS011;45298;54.918;73.504;2023-08-20T13:00:29;8.85;;;3.53;;
59486;SDS011;45298;54.918;73.504;2023-08-20T13:02:58;6.88;;;1.80;;
59486;SDS011;45298;54.918;73.504;2023-08-20T13:05:27;3.53;;;1.58;;
59486;SDS011;45298;54.918;73.504;2023-08-20T13:07:56;5.90;;;2.92;;
59486;SDS011;45298;54.918;73.504;2023-08-20T13:10:31;8.65;;;3.88;;
59486;SDS011;45298;54.918;73.504;2023-08-20T13:13:01;7.43;;;3.15;;
59486;SDS011;45298;54.918;73.504;2023-08-20T13:15:30;8.38;;;4.22;;
59486;SDS011;45298;54.918;73.504;2023-08-20T13:18:01;7.18;;;3.10;;
59486;SDS011;45298;54.918;73.504;2023-08-20T13:20:32;8.23;;;3.28;;
59486;SDS011;45298;54.918;73.504;2023-08-20T13:23:01;6.32;;;3.35;;
59486;SDS011;45298;54.918;73.504;2023-08-20T13:25:30;12.13;;;5.15;;
59486;SDS011;45298;54.918;73.504;2023-08-20T13:27:59;32.53;;;10.40;;
59486;SDS011;45298;54.918;73.504;2023-08-20T13:30:28;40.63;;;12.65;;
59486;SDS011;45298;54.918;73.504;2023-08-20T13:32:57;49.85;;;15.07;;
59486;SDS011;45298;54.918;73.504;2023-08-20T13:35:26;46.05;;;14.10;;
59486;SDS011;45298;54.918;73.504;2023-08-20T13:37:57;48.33;;;15.35;;
59486;SDS011;45298;54.918;73.504;2023-08-20T13:40:26;45.05;;;14.52;;
59486;SDS011;45298;54.918;73.504;2023-08-20T13:42:56;79.40;;;32.67;;
59486;SDS011;45298;54.918;73.504;2023-08-20T13:45:25;11.27;;;4.97;;
59486;SDS011;45298;54.918;73.504;2023-08-20T13:47:54;10.18;;;4.25;;
59486;SDS011;45298;54.918;73.504;2023-08-20T13:50:23;10.80;;;4.30;;
59486;SDS011;45298;54.918;73.504;2023-08-20T13:52:52;7.75;;;4.20;;
59486;SDS011;45298;54.918;73.504;2023-08-20T13:55:21;9.43;;;4.30;;
59486;SDS011;45298;54.918;73.504;2023-08-20T13:57:50;12.32;;;4.60;;
59486;SDS011;45298;54.918;73.504;2023-08-20T14:00:19;9.00;;;4.65;;
59486;SDS011;45298;54.918;73.504;2023-08-20T14:02:51;7.38;;;4.53;;
59486;SDS011;45298;54.918;73.504;2023-08-20T14:05:20;10.10;;;4.68;;
59486;SDS011;45298;54.918;73.504;2023-08-20T14:07:49;14.35;;;7.22;;
59486;SDS011;45298;54.918;73.504;2023-08-20T14:10:18;15.82;;;7.18;;
59486;SDS011;45298;54.918;73.504;2023-08-20T14:12:47;19.60;;;9.63;;
59486;SDS011;45298;54.918;73.504;2023-08-20T14:15:19;17.77;;;9.57;;
59486;SDS011;45298;54.918;73.504;2023-08-20T14:17:48;26.85;;;13.77;;
59486;SDS011;45298;54.918;73.504;2023-08-20T14:20:17;25.48;;;13.40;;
59486;SDS011;45298;54.918;73.504;2023-08-20T14:22:46;22.05;;;12.25;;
59486;SDS011;45298;54.918;73.504;2023-08-20T14:25:15;27.70;;;14.98;;
59486;SDS011;45298;54.918;73.504;2023-08-20T14:27:44;25.88;;;13.77;;
59486;SDS011;45298;54.918;73.504;2023-08-20T14:30:13;27.45;;;14.57;;
59486;SDS011;45298;54.918;73.504;2023-08-20T14:32:42;20.63;;;11.18;;
59486;SDS011;45298;54.918;73.504;2023-08-20T14:35:12;19.65;;;10.70;;
59486;SDS011;45298;54.918;73.504;2023-08-20T14:37:44;14.98;;;8.05;;
59486;SDS011;45298;54.918;73.504;2023-08-20T14:40:13;15.48;;;8.90;;
59486;SDS011;45298;54.918;73.504;2023-08-20T14:42:42;21.92;;;10.13;;
59486;SDS011;45298;54.918;73.504;2023-08-20T14:45:11;32.20;;;16.85;;
59486;SDS011;45298;54.918;73.504;2023-08-20T14:47:40;45.63;;;20.27;;
59486;SDS011;45298;54.918;73.504;2023-08-20T14:50:09;57.97;;;25.88;;
59486;SDS011;45298;54.918;73.504;2023-08-20T14:52:38;70.05;;;31.42;;
59486;SDS011;45298;54.918;73.504;2023-08-20T14:55:07;125.70;;;55.63;;
59486;SDS011;45298;54.918;73.504;2023-08-20T14:57:37;88.90;;;35.08;;
59486;SDS011;45298;54.918;73.504;2023-08-20T15:00:18;64.82;;;24.90;;
59486;SDS011;45298;54.918;73.504;2023-08-20T15:02:47;74.25;;;28.70;;
59486;SDS011;45298;54.918;73.504;2023-08-20T15:05:16;87.93;;;30.40;;
59486;SDS011;45298;54.918;73.504;2023-08-20T15:07:44;103.78;;;39.38;;
59486;SDS011;45298;54.918;73.504;2023-08-20T15:10:13;117.05;;;47.72;;
59486;SDS011;45298;54.918;73.504;2023-08-20T15:12:42;85.93;;;36.42;;
59486;SDS011;45298;54.918;73.504;2023-08-20T15:15:11;60.70;;;27.10;;
59486;SDS011;45298;54.918;73.504;2023-08-20T15:17:40;127.75;;;36.38;;
59486;SDS011;45298;54.918;73.504;2023-08-20T15:20:13;73.90;;;27.75;;
59486;SDS011;45298;54.918;73.504;2023-08-20T15:22:41;45.75;;;19.95;;
59486;SDS011;45298;54.918;73.504;2023-08-20T15:25:10;63.88;;;26.75;;
59486;SDS011;45298;54.918;73.504;2023-08-20T15:27:39;37.95;;;17.58;;
59486;SDS011;45298;54.918;73.504;2023-08-20T15:30:08;81.40;;;32.55;;
59486;SDS011;45298;54.918;73.504;2023-08-20T15:32:38;237.65;;;103.28;;
59486;SDS011;45298;54.918;73.504;2023-08-20T15:35:07;73.78;;;31.40;;
59486;SDS011;45298;54.918;73.504;2023-08-20T15:37:36;71.63;;;31.65;;
59486;SDS011;45298;54.918;73.504;2023-08-20T15:40:06;67.20;;;25.42;;
59486;SDS011;45298;54.918;73.504;2023-08-20T15:42:41;55.72;;;21.58;;
59486;SDS011;45298;54.918;73.504;2023-08-20T15:45:10;119.72;;;45.78;;
59486;SDS011;45298;54.918;73.504;2023-08-20T15:47:38;47.60;;;21.05;;
59486;SDS011;45298;54.918;73.504;2023-08-20T15:50:10;54.63;;;22.70;;
59486;SDS011;45298;54.918;73.504;2023-08-20T15:52:39;47.63;;;26.52;;
59486;SDS011;45298;54.918;73.504;2023-08-20T15:55:08;56.50;;;25.77;;
59486;SDS011;45298;54.918;73.504;2023-08-20T15:57:38;27.77;;;14.48;;
59486;SDS011;45298;54.918;73.504;2023-08-20T16:00:08;31.98;;;15.18;;
59486;SDS011;45298;54.918;73.504;2023-08-20T16:02:43;42.25;;;16.10;;